Terminal Aerodrome Forecast
Issued by NWS

Home | Current Version | Previous Version | Text Only | Print | Product List | Glossary On
Versions: 1 2 3 4 5 6 7 8 9 10 11 12 13 14 15 16 17 18 19 20
075
FTUS41 KPBZ 071730
TAFDUJ
TAF
KDUJ 071730Z 0718/0818 26011KT P6SM SCT035
     FM081400 26010G22KT P6SM BKN040=

USA.gov is the U.S. government's official web portal to all federal, state and local government web resources and services.